Time;durP1;ratioP1;P1;durP2;ratioP2;P2;SDS_P1;SDS_P2;PMS_P1;PMS_P2;Temp;Humidity;BMP_temperature;BMP_pressure;BME280_temperature;BME280_humidity;BME280_pressure;Samples;Min_cycle;Max_cycle;Signal;HPM_P1;HPM_P2
2022/12/23 00:02:13;;;;;;;;;;;5.60;99.90;;;;;;5091563;28;20138;-76
2022/12/23 00:04:39;;;;;;;;;;;5.40;99.90;;;;;;5093223;28;19958;-75
2022/12/23 00:07:04;;;;;;;;;;;5.30;99.90;;;;;;5091988;28;19908;-75
2022/12/23 00:09:30;;;;;;;;;;;6.00;99.90;;;;;;5092185;28;19908;-76
2022/12/23 00:17:23;;;;;;;;;;;5.60;99.90;;;;;;5094275;28;19957;-75
2022/12/23 00:19:49;;;;;;;;;;;5.60;99.90;;;;;;5091740;28;19983;-75
2022/12/23 00:22:15;;;;;;;;;;;5.40;99.90;;;;;;5093293;28;19927;-75
2022/12/23 00:24:41;;;;;;;;;;;5.80;99.90;;;;;;5091357;28;19938;-75
2022/12/23 00:27:06;;;;;;;;;;;5.40;99.90;;;;;;5068980;28;19911;-75
2022/12/23 00:29:32;;;;;;;;;;;5.70;99.90;;;;;;5066957;28;19998;-75
2022/12/23 00:31:58;;;;;;;;;;;5.50;99.90;;;;;;5085800;28;19973;-76
2022/12/23 00:34:24;;;;;;;;;;;5.50;99.90;;;;;;5085023;28;20299;-75
2022/12/23 00:36:50;;;;;;;;;;;5.50;99.90;;;;;;5084862;28;20514;-75
2022/12/23 00:44:51;;;;;;;;;;;6.30;99.90;;;;;;5094537;28;19914;-75
2022/12/23 00:50:01;;;;;;;;;;;5.90;99.90;;;;;;5093849;28;19996;-75
2022/12/23 00:52:27;;;;;;;;;;;5.80;99.90;;;;;;5094628;28;19951;-76
2022/12/23 00:54:52;;;;;;;;;;;5.80;99.90;;;;;;5094466;28;19914;-75
2022/12/23 00:57:18;;;;;;;;;;;5.70;99.90;;;;;;5071662;28;20390;-76
2022/12/23 00:59:43;;;;;;;;;;;5.70;99.90;;;;;;5073601;28;19988;-75
2022/12/23 01:07:41;;;;;;;;;;;5.70;99.90;;;;;;5073856;28;20507;-76
2022/12/23 01:10:08;;;;;;;;;;;5.70;99.90;;;;;;5072908;28;19975;-75
2022/12/23 01:12:33;;;;;;;;;;;5.70;99.90;;;;;;5073480;28;19966;-76
2022/12/23 01:14:59;;;;;;;;;;;5.70;99.90;;;;;;5073583;28;19912;-76
2022/12/23 01:17:25;;;;;;;;;;;5.70;99.90;;;;;;5072920;28;20096;-75
2022/12/23 01:19:50;;;;;;;;;;;5.80;99.90;;;;;;5071503;28;20582;-76
2022/12/23 01:22:16;;;;;;;;;;;5.80;99.90;;;;;;5071787;28;19909;-76
2022/12/23 01:24:41;;;;;;;;;;;5.80;99.90;;;;;;5076588;28;20074;-76
2022/12/23 01:27:07;;;;;;;;;;;5.80;99.90;;;;;;5075448;28;20115;-75
2022/12/23 01:29:32;;;;;;;;;;;5.80;99.90;;;;;;5075346;28;19904;-76
2022/12/23 01:31:58;;;;;;;;;;;5.70;99.90;;;;;;5076488;28;19983;-75
2022/12/23 01:34:23;;;;;;;;;;;5.80;99.90;;;;;;5076428;28;19958;-75
2022/12/23 01:36:49;;;;;;;;;;;5.80;99.90;;;;;;5074222;28;20334;-75
2022/12/23 01:39:15;;;;;;;;;;;5.80;99.90;;;;;;5073942;28;19905;-75
2022/12/23 01:45:03;;;;;;;;;;;5.70;99.90;;;;;;5082398;28;19914;-77
2022/12/23 01:47:41;;;;;;;;;;;5.70;99.90;;;;;;5000259;28;19920;-76
2022/12/23 01:50:12;;;;;;;;;;;5.80;99.90;;;;;;4994446;28;20159;-76
2022/12/23 01:52:50;;;;;;;;;;;5.80;99.90;;;;;;4993751;28;19917;-76
2022/12/23 01:55:18;;;;;;;;;;;5.80;99.90;;;;;;4994035;28;20433;-76
2022/12/23 01:57:43;;;;;;;;;;;5.50;99.90;;;;;;4993266;28;19948;-76
2022/12/23 02:05:41;;;;;;;;;;;5.80;99.90;;;;;;4967934;28;19921;-75
2022/12/23 02:11:10;;;;;;;;;;;6.00;99.90;;;;;;4968392;28;19913;-76
2022/12/23 02:16:15;;;;;;;;;;;6.00;99.90;;;;;;4970457;28;19914;-75
2022/12/23 02:16:27;;;;;;;;;;;2.90;99.90;;;;;;4985409;28;19941;-75
2022/12/23 02:18:56;;;;;;;;;;;5.80;99.90;;;;;;5049490;28;19927;-76
2022/12/23 02:21:36;;;;;;;;;;;5.10;99.90;;;;;;5072862;28;19916;-76
2022/12/23 02:24:01;;;;;;;;;;;5.80;99.90;;;;;;5072706;28;19920;-76
2022/12/23 02:26:27;;;;;;;;;;;5.90;99.90;;;;;;5072757;28;19904;-75
2022/12/23 02:29:11;;;;;;;;;;;6.10;99.90;;;;;;5073546;28;19912;-76
2022/12/23 02:31:55;;;;;;;;;;;4.10;99.90;;;;;;5074658;28;19912;-75
2022/12/23 02:34:36;;;;;;;;;;;9.10;99.90;;;;;;5088512;28;20003;-75
2022/12/23 02:37:06;;;;;;;;;;;6.30;99.90;;;;;;5074665;28;19909;-75
2022/12/23 02:39:39;;;;;;;;;;;6.20;99.90;;;;;;5074767;28;19910;-75
2022/12/23 02:42:08;;;;;;;;;;;6.40;99.90;;;;;;5073083;28;19988;-76
2022/12/23 02:44:39;;;;;;;;;;;6.80;99.90;;;;;;5073595;28;19904;-76
2022/12/23 02:47:09;;;;;;;;;;;3.00;99.90;;;;;;5070965;28;19911;-76
2022/12/23 02:49:39;;;;;;;;;;;5.80;99.90;;;;;;5071076;28;19970;-76
2022/12/23 02:52:09;;;;;;;;;;;5.90;99.90;;;;;;5072128;28;19912;-75
2022/12/23 02:54:37;;;;;;;;;;;5.80;99.90;;;;;;5072190;28;19916;-75
2022/12/23 02:57:05;;;;;;;;;;;5.70;99.90;;;;;;5088536;28;19912;-75
2022/12/23 02:59:36;;;;;;;;;;;5.70;99.90;;;;;;5092440;28;19908;-76
2022/12/23 03:02:04;;;;;;;;;;;5.70;99.90;;;;;;5092474;28;19904;-75
2022/12/23 03:04:30;;;;;;;;;;;5.60;99.90;;;;;;5094080;28;19949;-75
2022/12/23 03:06:57;;;;;;;;;;;5.60;99.90;;;;;;5093374;28;20407;-75
2022/12/23 03:09:42;;;;;;;;;;;5.60;99.90;;;;;;5094162;28;19908;-76
2022/12/23 03:12:31;;;;;;;;;;;5.50;99.90;;;;;;5089875;28;20383;-75
2022/12/23 03:15:06;;;;;;;;;;;5.50;99.90;;;;;;5086935;28;19908;-75
2022/12/23 03:17:48;;;;;;;;;;;4.60;99.90;;;;;;5088903;28;19930;-76
2022/12/23 03:20:18;;;;;;;;;;;5.90;99.90;;;;;;5087352;28;19971;-76
2022/12/23 03:22:59;;;;;;;;;;;5.60;99.90;;;;;;5086680;28;20323;-75
2022/12/23 03:25:34;;;;;;;;;;;6.00;99.90;;;;;;5085713;28;20093;-75
2022/12/23 03:27:59;;;;;;;;;;;5.50;99.90;;;;;;5086581;28;20037;-76
2022/12/23 03:30:26;;;;;;;;;;;5.60;99.90;;;;;;5069307;28;19927;-76
2022/12/23 03:32:53;;;;;;;;;;;5.60;99.90;;;;;;5087449;28;19978;-75
2022/12/23 03:35:21;;;;;;;;;;;5.60;99.90;;;;;;5087119;28;20045;-75
2022/12/23 03:37:48;;;;;;;;;;;5.60;99.90;;;;;;5067215;28;20108;-75
2022/12/23 03:40:27;;;;;;;;;;;5.50;99.90;;;;;;5086229;28;20204;-75
2022/12/23 03:42:59;;;;;;;;;;;5.60;99.90;;;;;;5085159;28;20397;-76
2022/12/23 03:45:27;;;;;;;;;;;5.60;99.90;;;;;;5085252;28;19904;-75
2022/12/23 03:47:58;;;;;;;;;;;5.60;99.90;;;;;;5086898;28;19911;-75
2022/12/23 03:50:24;;;;;;;;;;;5.60;99.90;;;;;;5086170;28;19904;-75
2022/12/23 03:52:54;;;;;;;;;;;5.50;99.90;;;;;;5086334;28;20132;-75
2022/12/23 03:55:24;;;;;;;;;;;5.50;99.90;;;;;;5089759;28;19922;-76
2022/12/23 03:58:08;;;;;;;;;;;5.50;99.90;;;;;;5090328;28;19904;-76
2022/12/23 04:00:34;;;;;;;;;;;5.50;99.90;;;;;;5090407;28;20002;-75
2022/12/23 04:03:09;;;;;;;;;;;5.40;99.90;;;;;;5089930;28;19927;-76
2022/12/23 04:05:47;;;;;;;;;;;5.40;99.90;;;;;;5091241;28;19995;-75
2022/12/23 04:08:16;;;;;;;;;;;5.40;99.90;;;;;;5088731;28;20002;-75
2022/12/23 04:10:42;;;;;;;;;;;3.40;99.90;;;;;;5089538;28;19976;-76
2022/12/23 04:13:08;;;;;;;;;;;5.40;99.90;;;;;;5071393;28;20418;-75
2022/12/23 04:15:37;;;;;;;;;;;5.30;99.90;;;;;;5089759;28;20208;-77
2022/12/23 04:18:02;;;;;;;;;;;5.30;99.90;;;;;;5092266;28;19911;-75
2022/12/23 04:20:28;;;;;;;;;;;5.00;99.90;;;;;;5073889;28;19908;-75
2022/12/23 04:22:54;;;;;;;;;;;5.30;99.90;;;;;;5092530;28;19958;-75
2022/12/23 04:25:19;;;;;;;;;;;5.30;99.90;;;;;;5091552;28;20239;-75
2022/12/23 04:27:45;;;;;;;;;;;5.30;99.90;;;;;;5092899;28;19966;-76
2022/12/23 04:30:12;;;;;;;;;;;5.20;99.90;;;;;;5073936;28;19950;-75
2022/12/23 04:32:39;;;;;;;;;;;5.20;99.90;;;;;;5091469;28;19950;-76
2022/12/23 04:35:05;;;;;;;;;;;6.10;99.90;;;;;;5087711;28;19929;-75
2022/12/23 04:37:31;;;;;;;;;;;5.10;99.90;;;;;;5085007;28;20002;-76
2022/12/23 04:39:56;;;;;;;;;;;5.10;99.90;;;;;;5085034;28;19908;-75
2022/12/23 04:42:22;;;;;;;;;;;5.10;99.90;;;;;;5085637;28;19904;-75
2022/12/23 04:44:47;;;;;;;;;;;4.90;99.90;;;;;;5085830;28;20093;-75
2022/12/23 04:47:13;;;;;;;;;;;4.90;99.90;;;;;;5085881;28;20567;-75
2022/12/23 04:49:39;;;;;;;;;;;4.90;99.90;;;;;;5086862;28;19922;-76
2022/12/23 04:52:04;;;;;;;;;;;4.90;99.90;;;;;;5084984;28;19934;-75
2022/12/23 04:54:30;;;;;;;;;;;4.80;99.90;;;;;;5088551;28;20214;-75
2022/12/23 04:56:56;;;;;;;;;;;4.80;99.90;;;;;;5086481;28;20011;-75
2022/12/23 04:59:21;;;;;;;;;;;4.80;99.90;;;;;;5086818;28;19927;-76
2022/12/23 05:01:47;;;;;;;;;;;4.80;99.90;;;;;;5087156;28;20123;-75
2022/12/23 05:04:12;;;;;;;;;;;4.80;99.90;;;;;;5090747;28;20352;-75
2022/12/23 05:06:38;;;;;;;;;;;4.80;99.90;;;;;;5092342;28;19935;-76
2022/12/23 05:09:04;;;;;;;;;;;3.70;99.90;;;;;;5092325;28;19926;-76
2022/12/23 05:11:30;;;;;;;;;;;4.90;99.90;;;;;;5090496;28;20104;-76
2022/12/23 05:13:56;;;;;;;;;;;4.60;99.90;;;;;;5085974;28;20329;-75
2022/12/23 05:16:24;;;;;;;;;;;4.50;99.90;;;;;;5087142;28;19912;-75
2022/12/23 05:18:51;;;;;;;;;;;4.90;99.90;;;;;;5086824;28;19908;-75
2022/12/23 05:21:17;;;;;;;;;;;4.60;99.90;;;;;;5086169;28;19903;-75
2022/12/23 05:23:43;;;;;;;;;;;2.20;99.90;;;;;;5090026;28;20097;-76
2022/12/23 05:26:08;;;;;;;;;;;4.70;99.90;;;;;;5090724;28;19951;-75
2022/12/23 05:28:34;;;;;;;;;;;3.30;99.90;;;;;;5092813;28;20230;-75
2022/12/23 05:31:01;;;;;;;;;;;4.80;99.90;;;;;;5097923;28;19913;-75
2022/12/23 05:33:26;;;;;;;;;;;4.30;99.90;;;;;;5094788;28;19912;-75
2022/12/23 05:35:52;;;;;;;;;;;4.50;99.90;;;;;;5093127;28;19911;-75
2022/12/23 05:38:18;;;;;;;;;;;3.30;99.90;;;;;;5092876;28;19904;-75
2022/12/23 05:40:43;;;;;;;;;;;4.70;99.90;;;;;;5093067;28;19904;-76
2022/12/23 05:43:09;;;;;;;;;;;4.70;99.90;;;;;;5094853;28;19939;-75
2022/12/23 05:45:35;;;;;;;;;;;4.80;99.90;;;;;;5094402;28;20298;-74
2022/12/23 05:48:00;;;;;;;;;;;4.40;99.90;;;;;;5093748;28;19912;-75
2022/12/23 05:50:26;;;;;;;;;;;4.40;99.90;;;;;;5093986;28;19908;-75
2022/12/23 05:52:54;;;;;;;;;;;4.90;99.90;;;;;;5092971;28;19912;-76
2022/12/23 05:55:20;;;;;;;;;;;4.50;99.90;;;;;;5095110;28;19904;-75
2022/12/23 05:57:46;;;;;;;;;;;4.20;99.90;;;;;;5091773;28;19908;-75
2022/12/23 06:00:12;;;;;;;;;;;4.70;99.90;;;;;;5089902;28;19916;-78
2022/12/23 06:02:38;;;;;;;;;;;4.20;99.90;;;;;;5086461;28;19918;-76
2022/12/23 06:05:04;;;;;;;;;;;4.30;99.90;;;;;;5087698;28;20134;-77
2022/12/23 06:07:29;;;;;;;;;;;3.40;99.90;;;;;;5090058;28;19957;-75
2022/12/23 06:09:55;;;;;;;;;;;6.70;99.90;;;;;;5093146;28;19938;-75
2022/12/23 06:12:21;;;;;;;;;;;3.70;99.90;;;;;;5093599;28;19912;-76
2022/12/23 06:14:46;;;;;;;;;;;4.00;99.90;;;;;;5093688;28;19904;-75
2022/12/23 06:17:12;;;;;;;;;;;4.40;99.90;;;;;;5088361;28;19908;-75
2022/12/23 06:19:38;;;;;;;;;;;4.40;99.90;;;;;;5076681;28;19935;-76
2022/12/23 06:22:04;;;;;;;;;;;2.00;99.90;;;;;;5092583;28;19904;-75
2022/12/23 06:24:29;;;;;;;;;;;4.50;99.90;;;;;;5088606;28;20058;-75
2022/12/23 06:26:55;;;;;;;;;;;4.60;99.90;;;;;;5088312;28;19935;-75
2022/12/23 06:29:20;;;;;;;;;;;4.50;99.90;;;;;;5090306;28;19904;-76
2022/12/23 06:31:46;;;;;;;;;;;4.40;99.90;;;;;;5089020;28;19904;-75
2022/12/23 06:34:12;;;;;;;;;;;4.40;99.90;;;;;;5093632;28;19919;-75
2022/12/23 06:36:37;;;;;;;;;;;4.30;99.90;;;;;;5083843;28;20263;-76
2022/12/23 06:39:03;;;;;;;;;;;4.30;99.90;;;;;;5068184;28;19904;-75
2022/12/23 06:41:29;;;;;;;;;;;4.30;99.90;;;;;;5085064;28;19922;-76
2022/12/23 06:43:54;;;;;;;;;;;4.30;99.90;;;;;;5088297;28;19915;-74
2022/12/23 06:46:20;;;;;;;;;;;4.40;99.90;;;;;;5087895;28;20567;-75
2022/12/23 06:48:45;;;;;;;;;;;4.40;99.90;;;;;;5086524;28;19904;-75
2022/12/23 06:51:11;;;;;;;;;;;4.40;99.90;;;;;;5090427;28;19919;-75
2022/12/23 06:53:37;;;;;;;;;;;4.40;99.90;;;;;;5087606;28;19919;-76
2022/12/23 06:56:04;;;;;;;;;;;4.40;99.90;;;;;;5089430;28;20154;-75
2022/12/23 06:58:30;;;;;;;;;;;4.30;99.90;;;;;;5089765;28;20007;-76
2022/12/23 07:00:56;;;;;;;;;;;4.30;99.90;;;;;;5090714;28;19939;-75
2022/12/23 07:03:22;;;;;;;;;;;4.30;99.90;;;;;;5091774;28;19904;-75
2022/12/23 07:05:49;;;;;;;;;;;4.30;99.90;;;;;;5089466;28;20361;-75
2022/12/23 07:08:15;;;;;;;;;;;4.30;99.90;;;;;;5091556;28;19957;-75
2022/12/23 07:10:40;;;;;;;;;;;4.30;99.90;;;;;;5095635;28;19908;-75
2022/12/23 07:13:06;;;;;;;;;;;2.90;99.90;;;;;;5094028;28;19912;-75
2022/12/23 07:15:32;;;;;;;;;;;4.40;99.90;;;;;;5073037;28;20382;-75
2022/12/23 07:17:58;;;;;;;;;;;4.50;99.90;;;;;;5092203;28;19967;-75
2022/12/23 07:20:23;;;;;;;;;;;4.50;99.90;;;;;;5089285;28;19965;-75
2022/12/23 07:22:49;;;;;;;;;;;4.50;99.90;;;;;;5089316;28;20358;-75
2022/12/23 07:25:15;;;;;;;;;;;4.60;99.90;;;;;;5085490;28;19954;-76
2022/12/23 07:27:41;;;;;;;;;;;4.60;99.90;;;;;;5087483;28;20035;-76
2022/12/23 07:30:08;;;;;;;;;;;4.50;99.90;;;;;;5096294;28;19904;-76
2022/12/23 07:32:34;;;;;;;;;;;4.70;99.90;;;;;;5089770;28;19919;-75
2022/12/23 07:34:59;;;;;;;;;;;4.80;99.90;;;;;;5087218;28;19908;-76
2022/12/23 07:37:25;;;;;;;;;;;4.90;99.90;;;;;;5092390;28;19904;-75
2022/12/23 07:39:50;;;;;;;;;;;4.80;99.90;;;;;;5087016;28;20116;-75
2022/12/23 07:42:16;;;;;;;;;;;4.80;99.90;;;;;;5083909;28;19989;-75
2022/12/23 07:44:44;;;;;;;;;;;4.60;99.90;;;;;;5085588;28;19915;-75
2022/12/23 07:47:10;;;;;;;;;;;4.50;99.90;;;;;;5086204;28;20432;-75
2022/12/23 07:49:35;;;;;;;;;;;4.40;99.90;;;;;;5103113;28;19903;-75
2022/12/23 07:52:01;;;;;;;;;;;4.40;99.90;;;;;;5107172;28;20530;-75
2022/12/23 07:54:26;;;;;;;;;;;4.40;99.90;;;;;;5106375;28;20057;-75
2022/12/23 07:56:59;;;;;;;;;;;4.50;99.90;;;;;;5111318;28;20462;-75
2022/12/23 07:59:26;;;;;;;;;;;4.70;99.90;;;;;;5109408;28;19908;-76
2022/12/23 08:01:51;;;;;;;;;;;4.60;99.90;;;;;;5109247;28;19904;-75
2022/12/23 08:04:17;;;;;;;;;;;4.70;99.90;;;;;;5109174;28;19903;-76
2022/12/23 08:06:42;;;;;;;;;;;4.80;99.90;;;;;;5092860;28;20578;-76
2022/12/23 08:09:08;;;;;;;;;;;4.80;99.90;;;;;;5114543;28;20644;-76
2022/12/23 08:11:34;;;;;;;;;;;4.80;99.90;;;;;;5112496;28;19900;-76
2022/12/23 08:13:59;;;;;;;;;;;4.80;99.90;;;;;;5112831;28;20542;-76
2022/12/23 08:16:25;;;;;;;;;;;5.00;99.90;;;;;;5110997;28;19904;-76
2022/12/23 08:18:50;;;;;;;;;;;5.10;99.90;;;;;;5108646;28;19914;-76
2022/12/23 08:21:18;;;;;;;;;;;5.10;99.90;;;;;;5110896;28;19956;-76
2022/12/23 08:23:45;;;;;;;;;;;5.10;99.90;;;;;;5114207;28;19911;-76
2022/12/23 08:26:13;;;;;;;;;;;5.30;99.90;;;;;;5093573;28;19904;-76
2022/12/23 08:28:39;;;;;;;;;;;5.50;99.90;;;;;;5110322;28;19946;-75
2022/12/23 08:31:06;;;;;;;;;;;5.70;99.90;;;;;;5106979;28;19907;-76
2022/12/23 08:33:32;;;;;;;;;;;5.80;99.90;;;;;;5106498;28;19912;-75
2022/12/23 08:35:58;;;;;;;;;;;5.80;99.90;;;;;;5107939;28;19904;-75
2022/12/23 08:38:24;;;;;;;;;;;5.60;99.90;;;;;;5107879;28;20003;-76
2022/12/23 08:40:49;;;;;;;;;;;5.60;99.90;;;;;;5110193;28;19908;-76
2022/12/23 08:43:15;;;;;;;;;;;5.50;99.90;;;;;;5087591;28;20576;-79
2022/12/23 08:45:40;;;;;;;;;;;5.50;99.90;;;;;;5106000;28;19911;-77
2022/12/23 08:48:07;;;;;;;;;;;5.40;99.90;;;;;;5104042;28;19914;-76
2022/12/23 08:50:41;;;;;;;;;;;5.30;99.90;;;;;;5093390;28;19904;-78
2022/12/23 08:53:06;;;;;;;;;;;5.20;99.90;;;;;;5110610;28;19914;-75
2022/12/23 08:55:36;;;;;;;;;;;5.20;99.90;;;;;;5105775;28;19908;-76
2022/12/23 08:58:02;;;;;;;;;;;5.20;99.90;;;;;;5106259;28;19919;-76
2022/12/23 09:00:27;;;;;;;;;;;5.20;99.90;;;;;;5107863;28;19926;-75
2022/12/23 09:02:53;;;;;;;;;;;5.20;99.90;;;;;;5110319;28;19952;-77
2022/12/23 09:05:18;;;;;;;;;;;5.10;99.90;;;;;;5115526;28;20557;-77
2022/12/23 09:07:44;;;;;;;;;;;5.10;99.90;;;;;;5117530;28;20183;-77
2022/12/23 09:10:10;;;;;;;;;;;5.10;99.90;;;;;;5115345;28;19959;-76
2022/12/23 09:12:36;;;;;;;;;;;5.30;99.90;;;;;;5101003;28;19914;-76
2022/12/23 09:15:02;;;;;;;;;;;5.40;99.90;;;;;;5120300;28;20401;-77
2022/12/23 09:17:27;;;;;;;;;;;5.50;99.90;;;;;;5124506;28;19931;-77
2022/12/23 09:19:53;;;;;;;;;;;5.50;99.90;;;;;;5123624;28;20473;-76
2022/12/23 09:22:20;;;;;;;;;;;5.60;99.90;;;;;;5117602;28;19977;-77
2022/12/23 09:24:47;;;;;;;;;;;5.70;99.90;;;;;;5114479;28;20447;-76
2022/12/23 09:27:12;;;;;;;;;;;5.90;99.90;;;;;;5093950;28;20592;-76
2022/12/23 09:29:38;;;;;;;;;;;6.00;99.90;;;;;;5114232;28;19910;-77
2022/12/23 09:32:03;;;;;;;;;;;6.10;99.90;;;;;;5109435;28;19907;-75
2022/12/23 09:34:29;;;;;;;;;;;6.00;99.90;;;;;;5108359;28;19968;-76
2022/12/23 09:36:55;;;;;;;;;;;6.20;99.90;;;;;;5111839;28;20382;-76
2022/12/23 09:39:23;;;;;;;;;;;6.30;99.90;;;;;;5117279;28;19937;-77
2022/12/23 09:41:48;;;;;;;;;;;6.40;99.90;;;;;;5099993;28;19904;-77
2022/12/23 09:44:29;;;;;;;;;;;6.60;99.90;;;;;;5121855;28;19910;-77
2022/12/23 09:47:00;;;;;;;;;;;6.80;99.90;;;;;;5121233;28;19903;-77
2022/12/23 09:49:27;;;;;;;;;;;7.00;99.90;;;;;;5119800;28;19986;-77
2022/12/23 09:51:56;;;;;;;;;;;7.20;99.90;;;;;;5103745;28;19906;-76
2022/12/23 09:54:23;;;;;;;;;;;7.40;99.90;;;;;;5120033;28;19938;-77
2022/12/23 09:56:52;;;;;;;;;;;7.40;99.90;;;;;;5103206;28;20690;-77
2022/12/23 09:59:23;;;;;;;;;;;7.50;99.90;;;;;;5100529;28;19911;-76
2022/12/23 10:02:09;;;;;;;;;;;7.70;99.90;;;;;;5115676;28;19907;-76
2022/12/23 10:04:53;;;;;;;;;;;7.90;99.90;;;;;;5114227;28;19903;-77
2022/12/23 10:07:27;;;;;;;;;;;8.20;99.90;;;;;;5118367;28;19901;-77
2022/12/23 10:09:55;;;;;;;;;;;8.40;99.90;;;;;;5112875;28;19915;-77
2022/12/23 10:12:23;;;;;;;;;;;8.60;99.90;;;;;;5114152;28;19914;-77
2022/12/23 10:14:50;;;;;;;;;;;6.40;99.90;;;;;;5115349;28;20510;-77
2022/12/23 10:17:31;;;;;;;;;;;8.00;99.90;;;;;;5111555;28;20580;-77
2022/12/23 10:20:01;;;;;;;;;;;8.80;99.90;;;;;;5108384;28;19907;-76
2022/12/23 10:22:39;;;;;;;;;;;9.00;99.90;;;;;;5107792;28;19904;-77
2022/12/23 10:25:09;;;;;;;;;;;9.30;99.90;;;;;;5108308;28;20007;-76
2022/12/23 10:27:39;;;;;;;;;;;9.30;99.90;;;;;;5109738;28;19934;-76
2022/12/23 10:30:18;;;;;;;;;;;9.40;99.90;;;;;;5108259;28;19911;-77
2022/12/23 10:32:53;;;;;;;;;;;9.60;99.90;;;;;;5088149;28;20010;-77
2022/12/23 10:35:25;;;;;;;;;;;9.60;99.90;;;;;;5109103;28;19933;-76
2022/12/23 10:37:56;;;;;;;;;;;9.50;99.90;;;;;;5109083;28;20024;-78
2022/12/23 10:40:36;;;;;;;;;;;9.40;99.90;;;;;;5091214;28;19924;-76
2022/12/23 10:43:07;;;;;;;;;;;9.30;99.90;;;;;;5115921;28;19923;-77
2022/12/23 10:45:52;;;;;;;;;;;9.80;99.90;;;;;;5096398;28;19903;-76
2022/12/23 10:48:36;;;;;;;;;;;9.10;99.90;;;;;;5112817;28;19912;-76
2022/12/23 10:51:18;;;;;;;;;;;9.00;99.90;;;;;;5110188;28;19941;-77
2022/12/23 10:53:56;;;;;;;;;;;8.90;99.90;;;;;;5111838;28;20010;-76
2022/12/23 10:56:21;;;;;;;;;;;8.60;99.90;;;;;;5111234;28;19914;-76
2022/12/23 10:58:54;;;;;;;;;;;8.70;99.90;;;;;;5096444;28;20010;-76
2022/12/23 11:01:25;;;;;;;;;;;8.60;99.90;;;;;;5095106;28;19946;-76
2022/12/23 11:04:00;;;;;;;;;;;8.60;99.90;;;;;;5112246;28;19911;-75
2022/12/23 11:06:26;;;;;;;;;;;8.50;99.90;;;;;;5116660;28;19967;-76
2022/12/23 11:08:52;;;;;;;;;;;8.50;99.90;;;;;;5118262;28;19918;-76
2022/12/23 11:11:17;;;;;;;;;;;8.60;99.90;;;;;;5120195;28;19994;-77
2022/12/23 11:13:45;;;;;;;;;;;8.70;99.90;;;;;;5119763;28;20420;-77
2022/12/23 11:16:24;;;;;;;;;;;8.90;99.90;;;;;;5118144;28;19911;-76
2022/12/23 11:18:58;;;;;;;;;;;9.20;99.90;;;;;;5113184;28;19908;-77
2022/12/23 11:21:24;;;;;;;;;;;9.60;99.90;;;;;;5091927;28;19904;-76
2022/12/23 11:24:12;;;;;;;;;;;9.90;99.90;;;;;;5111634;28;19908;-76
2022/12/23 11:26:38;;;;;;;;;;;10.10;99.90;;;;;;5106463;28;19903;-76
2022/12/23 11:29:09;;;;;;;;;;;10.00;99.90;;;;;;5106454;28;19911;-76
2022/12/23 11:31:36;;;;;;;;;;;10.10;99.90;;;;;;5105237;28;19907;-76
2022/12/23 11:37:23;;;;;;;;;;;9.90;99.90;;;;;;5023229;28;19905;-76
2022/12/23 11:39:49;;;;;;;;;;;9.80;99.90;;;;;;5023587;28;19901;-76
2022/12/23 11:42:16;;;;;;;;;;;9.80;99.90;;;;;;5024347;28;19913;-76
2022/12/23 11:44:43;;;;;;;;;;;9.80;99.90;;;;;;5024421;28;20028;-76
2022/12/23 11:47:18;;;;;;;;;;;10.00;99.90;;;;;;5025196;28;19913;-76
2022/12/23 11:49:47;;;;;;;;;;;10.10;99.90;;;;;;5029143;28;19905;-76
2022/12/23 11:52:16;;;;;;;;;;;10.50;99.90;;;;;;5027820;28;19920;-77
2022/12/23 11:54:48;;;;;;;;;;;10.80;99.90;;;;;;5029870;28;19905;-76
2022/12/23 11:57:15;;;;;;;;;;;10.80;99.90;;;;;;5032495;28;20012;-81
2022/12/23 11:59:42;;;;;;;;;;;10.90;99.90;;;;;;5029203;28;19905;-76
2022/12/23 12:02:26;;;;;;;;;;;11.00;99.90;;;;;;5026911;28;20113;-76
2022/12/23 12:05:03;;;;;;;;;;;10.40;99.90;;;;;;5026268;28;19959;-76
2022/12/23 12:07:30;;;;;;;;;;;10.90;99.90;;;;;;5029831;28;19909;-76
2022/12/23 12:09:56;;;;;;;;;;;11.00;99.90;;;;;;5029866;28;19909;-76
2022/12/23 12:12:22;;;;;;;;;;;11.10;99.90;;;;;;5021018;28;19959;-77
2022/12/23 12:14:55;;;;;;;;;;;11.20;99.90;;;;;;5087714;28;20559;-76
2022/12/23 12:17:36;;;;;;;;;;;11.20;99.90;;;;;;5110396;28;19904;-76
2022/12/23 12:20:11;;;;;;;;;;;11.30;99.90;;;;;;5110327;28;19900;-77
2022/12/23 12:22:48;;;;;;;;;;;11.50;99.90;;;;;;5112189;28;19902;-77
2022/12/23 12:25:23;;;;;;;;;;;11.70;99.90;;;;;;5111664;28;20339;-76
2022/12/23 12:27:53;;;;;;;;;;;11.90;99.90;;;;;;5109797;28;19904;-77
2022/12/23 12:30:19;;;;;;;;;;;12.10;99.90;;;;;;5104257;28;19997;-93
2022/12/23 12:32:45;;;;;;;;;;;12.20;99.90;;;;;;5101804;28;20002;-78
2022/12/23 12:35:50;;;;;;;;;;;12.20;99.90;;;;;;5087149;28;19929;-86
2022/12/23 12:38:26;;;;;;;;;;;12.30;99.90;;;;;;5008953;28;19905;-77
2022/12/23 12:41:01;;;;;;;;;;;12.20;99.90;;;;;;5013312;28;19910;-75
2022/12/23 12:43:31;;;;;;;;;;;12.30;99.90;;;;;;5016610;28;20059;-81
2022/12/23 12:46:28;;;;;;;;;;;12.10;99.90;;;;;;5015721;28;20049;-76
2022/12/23 12:48:54;;;;;;;;;;;13.00;99.90;;;;;;4974194;28;19906;-76
2022/12/23 12:51:23;;;;;;;;;;;12.10;99.90;;;;;;4969401;28;19921;-76
2022/12/23 12:53:51;;;;;;;;;;;12.70;99.90;;;;;;4970943;28;19914;-76
2022/12/23 12:56:21;;;;;;;;;;;12.20;99.90;;;;;;4957248;28;19914;-80
2022/12/23 12:58:47;;;;;;;;;;;12.20;99.90;;;;;;4949024;28;19907;-76
2022/12/23 13:01:12;;;;;;;;;;;12.30;99.90;;;;;;4948179;28;19906;-77
2022/12/23 13:03:44;;;;;;;;;;;12.40;99.90;;;;;;4946802;28;19906;-76
2022/12/23 13:06:12;;;;;;;;;;;12.40;99.90;;;;;;4947204;29;20057;-77
2022/12/23 13:08:40;;;;;;;;;;;12.50;99.90;;;;;;4961181;28;19916;-76
2022/12/23 13:11:09;;;;;;;;;;;12.50;99.90;;;;;;5005724;28;19906;-77
2022/12/23 13:13:47;;;;;;;;;;;12.50;99.90;;;;;;5005028;28;19913;-77
2022/12/23 13:16:31;;;;;;;;;;;12.50;99.90;;;;;;5006695;28;19905;-82
2022/12/23 13:18:59;;;;;;;;;;;12.60;99.90;;;;;;5004811;28;19963;-77
2022/12/23 13:21:37;;;;;;;;;;;12.60;99.90;;;;;;5004428;28;19902;-78
2022/12/23 13:24:21;;;;;;;;;;;12.70;99.90;;;;;;5032444;28;20395;-78
2022/12/23 13:26:58;;;;;;;;;;;12.70;99.90;;;;;;5091665;28;19911;-79
2022/12/23 13:29:35;;;;;;;;;;;12.70;99.90;;;;;;5093767;28;19943;-76
2022/12/23 13:32:19;;;;;;;;;;;12.70;99.90;;;;;;5091251;28;19908;-77
2022/12/23 13:34:53;;;;;;;;;;;12.70;99.90;;;;;;5091627;28;19961;-79
2022/12/23 13:37:28;;;;;;;;;;;12.70;99.90;;;;;;5091755;28;19903;-86
2022/12/23 13:39:57;;;;;;;;;;;12.60;99.90;;;;;;5096260;28;19930;-77
2022/12/23 13:42:29;;;;;;;;;;;12.60;99.90;;;;;;5074048;28;19929;-80
2022/12/23 13:44:55;;;;;;;;;;;12.60;99.90;;;;;;5093187;28;19987;-77
2022/12/23 13:47:24;;;;;;;;;;;12.60;99.90;;;;;;5092527;28;20084;-76
2022/12/23 13:50:10;;;;;;;;;;;12.60;99.90;;;;;;5091772;28;19908;-84
2022/12/23 13:52:57;;;;;;;;;;;12.60;99.90;;;;;;5091635;28;20011;-84
2022/12/23 13:55:26;;;;;;;;;;;12.70;99.90;;;;;;5076164;27;19915;-81
2022/12/23 13:58:11;;;;;;;;;;;12.70;99.90;;;;;;5107110;28;19908;-80
2022/12/23 14:00:37;;;;;;;;;;;12.80;99.90;;;;;;5089604;28;19903;-77
2022/12/23 14:03:14;;;;;;;;;;;12.80;99.90;;;;;;5102859;28;19968;-79
2022/12/23 14:05:44;;;;;;;;;;;12.40;99.90;;;;;;5105152;28;20409;-80
2022/12/23 14:08:21;;;;;;;;;;;12.90;99.90;;;;;;5104615;28;20472;-77
2022/12/23 14:11:09;;;;;;;;;;;13.50;99.90;;;;;;5105219;28;20456;-78
2022/12/23 14:13:41;;;;;;;;;;;12.50;99.90;;;;;;5085648;28;19912;-76
2022/12/23 14:16:14;;;;;;;;;;;13.10;99.90;;;;;;5104208;28;19899;-83
2022/12/23 14:18:41;;;;;;;;;;;13.10;99.90;;;;;;5086014;28;19918;-83
2022/12/23 14:21:23;;;;;;;;;;;13.60;99.90;;;;;;5103073;28;19911;-77
2022/12/23 14:23:49;;;;;;;;;;;13.20;99.90;;;;;;5103530;28;19903;-76
2022/12/23 14:26:18;;;;;;;;;;;13.00;99.90;;;;;;5103509;28;19941;-76
2022/12/23 14:28:57;;;;;;;;;;;13.00;99.90;;;;;;5105005;28;20109;-81
2022/12/23 14:31:29;;;;;;;;;;;12.90;99.90;;;;;;5084530;28;19899;-77
2022/12/23 14:34:15;;;;;;;;;;;12.70;99.90;;;;;;5104844;28;19912;-77
2022/12/23 14:37:00;;;;;;;;;;;12.50;99.90;;;;;;5103169;28;19904;-78
2022/12/23 14:39:30;;;;;;;;;;;10.20;99.90;;;;;;5104402;28;19944;-76
2022/12/23 14:41:56;;;;;;;;;;;11.90;99.90;;;;;;5107555;28;20006;-79
2022/12/23 14:44:34;;;;;;;;;;;11.70;99.90;;;;;;5110200;28;19918;-76
2022/12/23 14:47:00;;;;;;;;;;;11.50;99.90;;;;;;5108730;28;19943;-77
2022/12/23 14:49:39;;;;;;;;;;;11.20;99.90;;;;;;5107219;28;19935;-77
2022/12/23 14:52:24;;;;;;;;;;;11.00;99.90;;;;;;5110288;28;19966;-77
2022/12/23 14:54:50;;;;;;;;;;;10.80;99.90;;;;;;5114488;28;19911;-76
2022/12/23 14:57:18;;;;;;;;;;;10.60;99.90;;;;;;5093486;28;19916;-76
2022/12/23 14:59:55;;;;;;;;;;;10.30;99.90;;;;;;5111285;28;19903;-76
2022/12/23 15:02:30;;;;;;;;;;;10.10;99.90;;;;;;5113595;28;19924;-77
2022/12/23 15:04:57;;;;;;;;;;;9.90;99.90;;;;;;5110893;28;19900;-78
2022/12/23 15:07:37;;;;;;;;;;;9.70;99.90;;;;;;5112114;28;20612;-77
2022/12/23 15:10:13;;;;;;;;;;;9.60;99.90;;;;;;5115629;28;20548;-77
2022/12/23 15:12:39;;;;;;;;;;;9.20;99.90;;;;;;5121337;28;19911;-77
2022/12/23 15:15:12;;;;;;;;;;;9.20;99.90;;;;;;5121649;28;19904;-77